Aérodrome :
LOGIN :

S'inscrire | Disclaimer

   EN    FR    IT 

 










Légende :    VFR   VFR Marginal   IFR   IFR Intensif   IFR Très Intensif
Visi : 
Plafond : 
>= 8 km
>= 3000ft
5 à 8 km
1000 à 3000 ft
1500m à 5 km
500 à 1000 ft
800 à 1500m
200 à 500 ft
< 800m
< 200 ft
Symboles :   Orages  Brouillard  Fortes neiges  Fortes précipitations  Vent > 20 kt
SIGMETs :   Divers  Orages  Givrage  Turbulence  Onde Orograph.  Cendres Volcan.







- Altitude de l'aérodrome : 870 ft
- Code IATA : ETZ
- Voir les cartes d'approche


LFJL - Metz Nancy Lorraine

DERNIER METAR :
  • 222000Z AUTO VRB03KT 9999 NCD 16/10 Q1023 NOSIG

METARs EXPIRÉS :
  • 221930Z AUTO 34004KT 310V010 9999 NCD 16/10 Q1022 NOSIG
  • 221900Z AUTO 32005KT 9999 NCD 16/10 Q1022 NOSIG
  • 221830Z AUTO 31005KT 9999 NCD 17/10 Q1022 NOSIG
  • 221800Z AUTO 31007KT 9999 NCD 17/10 Q1022 NOSIG
  • 221730Z AUTO 32007KT 9999 FEW049/// BKN078/// 18/10 Q1021 NOSIG

TAF TAF LFJL
Valide du 22 à 18h jusqu'au 23 à 18h UTC


221700Z 2218/2318 VRB03KT CAVOK
PROB40 2303/2307 4000 BR
Pas de NOTAMs connus pour ce terrain.



MET'MAP, la Météo Aéronautique d'un coup d'oeil ! - Copyright ORBIFLY Décembre 2007 - Disclaimer

ORBIFLY MET'MAP TEAM :

Programmation & Développement : Alexandra Zaïnal
Conception & Développement : Baudouin d'Aumeries
Co-Programmation & Développement : Marc-Olivier Méhu
Soutien technique & logistique : Manuel Goepfert

Contact : metmap@orbifly.com




SOURCES & CREDITS :

   NOAA